CSHVD LPVL-LPVZ
Flight info
| Callsign | CSHVD |
|---|---|
| Flight time | 0h 21m |
| Altitude | 3500 |
| Route | ALFEN VISEU |
| Aircraft | EC35/L-VGD/C |
Departure
| Time | 2026-05-05 13:27 |
|---|---|
| Airport | Vilar de Luz Airfield (LPVL) |
Arrival
| Time | 2026-05-05 13:48 |
|---|---|
| Airport | Aerodromo Goncalves Lobato (Viseu Airport) (LPVZ) |
| Time | Latitude | Longitude | Altitude | Speed | Heading |
|---|---|---|---|---|---|
| 2026-05-05 13:15 | 41.27909 | -8.51857 | 758 ft | 0 kts | 65° |
| 2026-05-05 13:24 | 41.27909 | -8.51853 | 761 ft | 1 kts | 71° |
| 2026-05-05 13:25 | 41.27910 | -8.51849 | 760 ft | 1 kts | 66° |
| 2026-05-05 13:25 | 41.27910 | -8.51848 | 760 ft | 0 kts | 66° |
| 2026-05-05 13:25 | 41.27911 | -8.51837 | 763 ft | 1 kts | 71° |
| 2026-05-05 13:25 | 41.27910 | -8.51823 | 768 ft | 3 kts | 78° |
| 2026-05-05 13:26 | 41.27915 | -8.51791 | 765 ft | 1 kts | 65° |
| 2026-05-05 13:26 | 41.27925 | -8.51761 | 766 ft | 3 kts | 62° |
| 2026-05-05 13:26 | 41.27879 | -8.51701 | 798 ft | 28 kts | 160° |
| 2026-05-05 13:26 | 41.27576 | -8.51544 | 1061 ft | 62 kts | 158° |
| 2026-05-05 13:27 | 41.27132 | -8.51259 | 1324 ft | 84 kts | 150° |
| 2026-05-05 13:27 | 41.26512 | -8.50920 | 1437 ft | 104 kts | 151° |
| 2026-05-05 13:27 | 41.25815 | -8.50585 | 1516 ft | 104 kts | 157° |
| 2026-05-05 13:27 | 41.25120 | -8.50262 | 1551 ft | 109 kts | 158° |
| 2026-05-05 13:28 | 41.24419 | -8.49862 | 1568 ft | 112 kts | 153° |
| 2026-05-05 13:28 | 41.23769 | -8.49264 | 1574 ft | 113 kts | 133° |
| 2026-05-05 13:28 | 41.23186 | -8.48537 | 1540 ft | 116 kts | 134° |
| 2026-05-05 13:28 | 41.22606 | -8.47831 | 1635 ft | 108 kts | 135° |
| 2026-05-05 13:29 | 41.22062 | -8.47185 | 1753 ft | 104 kts | 135° |
| 2026-05-05 13:29 | 41.21512 | -8.46551 | 1953 ft | 107 kts | 139° |
| 2026-05-05 13:29 | 41.20894 | -8.45873 | 2090 ft | 121 kts | 139° |
| 2026-05-05 13:29 | 41.20241 | -8.45147 | 2240 ft | 124 kts | 138° |
| 2026-05-05 13:30 | 41.19581 | -8.44387 | 2391 ft | 126 kts | 137° |
| 2026-05-05 13:30 | 41.18923 | -8.43612 | 2497 ft | 129 kts | 136° |
| 2026-05-05 13:30 | 41.18234 | -8.42779 | 2497 ft | 135 kts | 134° |
| 2026-05-05 13:30 | 41.17543 | -8.41919 | 2507 ft | 138 kts | 135° |
| 2026-05-05 13:31 | 41.16830 | -8.41051 | 2497 ft | 141 kts | 135° |
| 2026-05-05 13:31 | 41.16103 | -8.40174 | 2500 ft | 141 kts | 136° |
| 2026-05-05 13:31 | 41.15373 | -8.39301 | 2496 ft | 141 kts | 136° |
| 2026-05-05 13:31 | 41.14638 | -8.38424 | 2496 ft | 141 kts | 136° |
| 2026-05-05 13:32 | 41.13902 | -8.37549 | 2503 ft | 141 kts | 135° |
| 2026-05-05 13:32 | 41.13176 | -8.36685 | 2487 ft | 142 kts | 136° |
| 2026-05-05 13:32 | 41.12430 | -8.35798 | 2461 ft | 143 kts | 135° |
| 2026-05-05 13:32 | 41.11691 | -8.34920 | 2437 ft | 142 kts | 136° |
| 2026-05-05 13:33 | 41.10959 | -8.34053 | 2449 ft | 141 kts | 136° |
| 2026-05-05 13:33 | 41.10227 | -8.33188 | 2447 ft | 142 kts | 136° |
| 2026-05-05 13:33 | 41.09492 | -8.32321 | 2464 ft | 141 kts | 136° |
| 2026-05-05 13:33 | 41.08750 | -8.31443 | 2444 ft | 142 kts | 136° |
| 2026-05-05 13:34 | 41.08011 | -8.30569 | 2444 ft | 142 kts | 136° |
| 2026-05-05 13:34 | 41.07272 | -8.29696 | 2444 ft | 141 kts | 136° |
| 2026-05-05 13:34 | 41.06546 | -8.28841 | 2476 ft | 141 kts | 136° |
| 2026-05-05 13:34 | 41.05812 | -8.27973 | 2478 ft | 141 kts | 136° |
| 2026-05-05 13:35 | 41.05075 | -8.27102 | 2507 ft | 140 kts | 136° |
| 2026-05-05 13:35 | 41.04375 | -8.26280 | 2695 ft | 132 kts | 136° |
| 2026-05-05 13:35 | 41.03686 | -8.25473 | 2882 ft | 130 kts | 137° |
| 2026-05-05 13:35 | 41.03011 | -8.24687 | 3045 ft | 129 kts | 137° |
| 2026-05-05 13:36 | 41.02327 | -8.23914 | 3217 ft | 129 kts | 138° |
| 2026-05-05 13:36 | 41.01646 | -8.23148 | 3392 ft | 129 kts | 138° |
| 2026-05-05 13:36 | 41.00951 | -8.22353 | 3471 ft | 136 kts | 137° |
| 2026-05-05 13:36 | 41.00221 | -8.21488 | 3466 ft | 141 kts | 135° |
| 2026-05-05 13:37 | 40.99496 | -8.20608 | 3464 ft | 142 kts | 135° |
| 2026-05-05 13:37 | 40.98772 | -8.19719 | 3460 ft | 142 kts | 135° |
| 2026-05-05 13:37 | 40.98032 | -8.18825 | 3441 ft | 144 kts | 135° |
| 2026-05-05 13:37 | 40.97286 | -8.17933 | 3439 ft | 143 kts | 136° |
| 2026-05-05 13:38 | 40.96549 | -8.17059 | 3440 ft | 143 kts | 136° |
| 2026-05-05 13:38 | 40.95806 | -8.16181 | 3441 ft | 142 kts | 136° |
| 2026-05-05 13:38 | 40.95074 | -8.15318 | 3443 ft | 142 kts | 136° |
| 2026-05-05 13:38 | 40.94328 | -8.14440 | 3443 ft | 142 kts | 136° |
| 2026-05-05 13:39 | 40.93592 | -8.13575 | 3430 ft | 141 kts | 136° |
| 2026-05-05 13:39 | 40.92855 | -8.12709 | 3433 ft | 141 kts | 136° |
| 2026-05-05 13:39 | 40.92121 | -8.11848 | 3431 ft | 141 kts | 136° |
| 2026-05-05 13:39 | 40.91382 | -8.10980 | 3437 ft | 142 kts | 135° |
| 2026-05-05 13:40 | 40.90785 | -8.09947 | 3442 ft | 141 kts | 121° |
| 2026-05-05 13:40 | 40.90246 | -8.08876 | 3428 ft | 142 kts | 121° |
| 2026-05-05 13:40 | 40.89701 | -8.07791 | 3425 ft | 141 kts | 121° |
| 2026-05-05 13:40 | 40.89142 | -8.06711 | 3435 ft | 141 kts | 124° |
| 2026-05-05 13:41 | 40.88491 | -8.05728 | 3433 ft | 143 kts | 135° |
| 2026-05-05 13:41 | 40.87719 | -8.04892 | 3421 ft | 143 kts | 140° |
| 2026-05-05 13:41 | 40.86951 | -8.04086 | 3426 ft | 141 kts | 140° |
| 2026-05-05 13:41 | 40.86170 | -8.03267 | 3280 ft | 144 kts | 138° |
| 2026-05-05 13:42 | 40.85402 | -8.02440 | 3145 ft | 142 kts | 138° |
| 2026-05-05 13:42 | 40.84634 | -8.01619 | 3029 ft | 142 kts | 138° |
| 2026-05-05 13:42 | 40.83873 | -8.00812 | 2950 ft | 139 kts | 139° |
| 2026-05-05 13:42 | 40.83126 | -8.00028 | 2922 ft | 135 kts | 139° |
| 2026-05-05 13:43 | 40.82396 | -7.99267 | 2933 ft | 133 kts | 139° |
| 2026-05-05 13:43 | 40.81669 | -7.98508 | 2942 ft | 133 kts | 139° |
| 2026-05-05 13:43 | 40.80939 | -7.97742 | 2921 ft | 133 kts | 139° |
| 2026-05-05 13:43 | 40.80238 | -7.96993 | 2892 ft | 126 kts | 137° |
| 2026-05-05 13:44 | 40.79578 | -7.96286 | 2919 ft | 119 kts | 137° |
| 2026-05-05 13:44 | 40.78935 | -7.95605 | 2934 ft | 118 kts | 138° |
| 2026-05-05 13:44 | 40.78292 | -7.94926 | 2924 ft | 119 kts | 138° |
| 2026-05-05 13:44 | 40.77639 | -7.94238 | 2942 ft | 119 kts | 138° |
| 2026-05-05 13:45 | 40.76990 | -7.93554 | 2943 ft | 121 kts | 138° |
| 2026-05-05 13:45 | 40.76334 | -7.92861 | 2936 ft | 121 kts | 138° |
| 2026-05-05 13:45 | 40.75681 | -7.92167 | 2910 ft | 118 kts | 136° |
| 2026-05-05 13:45 | 40.75063 | -7.91455 | 2829 ft | 117 kts | 134° |
| 2026-05-05 13:46 | 40.74421 | -7.90889 | 2819 ft | 106 kts | 151° |
| 2026-05-05 13:46 | 40.73798 | -7.90433 | 2815 ft | 98 kts | 147° |
| 2026-05-05 13:46 | 40.73210 | -7.89928 | 2708 ft | 104 kts | 146° |
| 2026-05-05 13:46 | 40.72528 | -7.89533 | 2527 ft | 107 kts | 167° |
| 2026-05-05 13:47 | 40.71896 | -7.89376 | 2510 ft | 77 kts | 171° |
| 2026-05-05 13:47 | 40.71448 | -7.89268 | 2458 ft | 58 kts | 166° |
| 2026-05-05 13:47 | 40.71269 | -7.88862 | 2421 ft | 52 kts | 85° |
| 2026-05-05 13:47 | 40.71425 | -7.88409 | 2483 ft | 59 kts | 46° |
| 2026-05-05 13:48 | 40.71773 | -7.88051 | 2466 ft | 71 kts | 22° |
| 2026-05-05 13:48 | 40.72200 | -7.87845 | 2481 ft | 54 kts | 320° |
| 2026-05-05 13:48 | 40.72357 | -7.88249 | 2318 ft | 45 kts | 282° |
| 2026-05-05 13:48 | 40.72425 | -7.88595 | 2230 ft | 37 kts | 278° |
| 2026-05-05 13:49 | 40.72426 | -7.88903 | 2128 ft | 25 kts | 268° |
| 2026-05-05 13:49 | 40.72397 | -7.89042 | 2089 ft | 1 kts | 341° |
| 2026-05-05 13:49 | 40.72411 | -7.89035 | 2070 ft | 4 kts | 9° |
| 2026-05-05 13:49 | 40.72416 | -7.89034 | 2063 ft | 1 kts | 84° |
| 2026-05-05 13:50 | 40.72416 | -7.89027 | 2068 ft | 1 kts | 81° |
| 2026-05-05 13:50 | 40.72416 | -7.89033 | 2065 ft | 2 kts | 86° |
| 2026-05-05 13:50 | 40.72414 | -7.89034 | 2056 ft | 0 kts | 80° |
| 2026-05-05 13:50 | 40.72414 | -7.89032 | 2054 ft | 1 kts | 83° |